sensor_id;sensor_type;location;lat;lon;timestamp;pressure;altitude;pressure_sealevel;temperature
20103;BMP180;10210;52.284;9.892;2023-09-30T00:01:11;101303.00;;;20.00
20103;BMP180;10210;52.284;9.892;2023-09-30T00:03:40;101306.00;;;20.00
20103;BMP180;10210;52.284;9.892;2023-09-30T00:06:06;101306.00;;;19.90
20103;BMP180;10210;52.284;9.892;2023-09-30T00:08:32;101313.00;;;19.90
20103;BMP180;10210;52.284;9.892;2023-09-30T00:10:57;101315.00;;;19.90
20103;BMP180;10210;52.284;9.892;2023-09-30T00:13:23;101314.00;;;19.90
20103;BMP180;10210;52.284;9.892;2023-09-30T00:15:49;101315.00;;;19.90
20103;BMP180;10210;52.284;9.892;2023-09-30T00:18:15;101315.00;;;19.80
20103;BMP180;10210;52.284;9.892;2023-09-30T00:20:40;101313.00;;;19.80
20103;BMP180;10210;52.284;9.892;2023-09-30T00:23:06;101318.00;;;19.80
20103;BMP180;10210;52.284;9.892;2023-09-30T00:25:33;101323.00;;;19.80
20103;BMP180;10210;52.284;9.892;2023-09-30T00:27:59;101326.00;;;19.80
20103;BMP180;10210;52.284;9.892;2023-09-30T00:30:25;101322.00;;;19.80
20103;BMP180;10210;52.284;9.892;2023-09-30T00:32:51;101332.00;;;19.70
20103;BMP180;10210;52.284;9.892;2023-09-30T00:35:17;101344.00;;;19.70
20103;BMP180;10210;52.284;9.892;2023-09-30T00:37:43;101340.00;;;19.70
20103;BMP180;10210;52.284;9.892;2023-09-30T00:40:09;101348.00;;;19.70
20103;BMP180;10210;52.284;9.892;2023-09-30T00:42:39;101342.00;;;19.70
20103;BMP180;10210;52.284;9.892;2023-09-30T00:45:07;101339.00;;;19.70
20103;BMP180;10210;52.284;9.892;2023-09-30T00:47:36;101341.00;;;19.60
20103;BMP180;10210;52.284;9.892;2023-09-30T00:50:03;101349.00;;;19.60
20103;BMP180;10210;52.284;9.892;2023-09-30T00:52:32;101348.00;;;19.60
20103;BMP180;10210;52.284;9.892;2023-09-30T00:54:59;101352.00;;;19.50
20103;BMP180;10210;52.284;9.892;2023-09-30T00:57:25;101355.00;;;19.50
20103;BMP180;10210;52.284;9.892;2023-09-30T00:59:52;101351.00;;;19.50
20103;BMP180;10210;52.284;9.892;2023-09-30T01:02:18;101348.00;;;19.50
20103;BMP180;10210;52.284;9.892;2023-09-30T01:04:45;101359.00;;;19.50
20103;BMP180;10210;52.284;9.892;2023-09-30T01:07:11;101357.00;;;19.50
20103;BMP180;10210;52.284;9.892;2023-09-30T01:09:37;101345.00;;;19.50
20103;BMP180;10210;52.284;9.892;2023-09-30T01:12:04;101349.00;;;19.50
20103;BMP180;10210;52.284;9.892;2023-09-30T01:14:32;101339.00;;;19.50
20103;BMP180;10210;52.284;9.892;2023-09-30T01:17:01;101350.00;;;19.50
20103;BMP180;10210;52.284;9.892;2023-09-30T01:19:27;101346.00;;;19.50
20103;BMP180;10210;52.284;9.892;2023-09-30T01:21:59;101348.00;;;19.50
20103;BMP180;10210;52.284;9.892;2023-09-30T01:24:26;101350.00;;;19.50
20103;BMP180;10210;52.284;9.892;2023-09-30T01:26:52;101355.00;;;19.50
20103;BMP180;10210;52.284;9.892;2023-09-30T01:29:18;101365.00;;;19.50
20103;BMP180;10210;52.284;9.892;2023-09-30T01:31:44;101375.00;;;19.50
20103;BMP180;10210;52.284;9.892;2023-09-30T01:34:14;101381.00;;;19.40
20103;BMP180;10210;52.284;9.892;2023-09-30T01:36:42;101372.00;;;19.40
20103;BMP180;10210;52.284;9.892;2023-09-30T01:39:12;101381.00;;;19.40
20103;BMP180;10210;52.284;9.892;2023-09-30T01:41:39;101381.00;;;19.40
20103;BMP180;10210;52.284;9.892;2023-09-30T01:44:06;101383.00;;;19.40
20103;BMP180;10210;52.284;9.892;2023-09-30T01:46:33;101382.00;;;19.40
20103;BMP180;10210;52.284;9.892;2023-09-30T01:48:59;101387.00;;;19.40
20103;BMP180;10210;52.284;9.892;2023-09-30T01:51:24;101381.00;;;19.30
20103;BMP180;10210;52.284;9.892;2023-09-30T01:53:50;101385.00;;;19.30
20103;BMP180;10210;52.284;9.892;2023-09-30T01:56:16;101386.00;;;19.30
20103;BMP180;10210;52.284;9.892;2023-09-30T01:58:42;101392.00;;;19.30
20103;BMP180;10210;52.284;9.892;2023-09-30T02:01:09;101390.00;;;19.40
20103;BMP180;10210;52.284;9.892;2023-09-30T02:03:35;101385.00;;;19.30
20103;BMP180;10210;52.284;9.892;2023-09-30T02:06:01;101386.00;;;19.40
20103;BMP180;10210;52.284;9.892;2023-09-30T02:08:27;101382.00;;;19.40
20103;BMP180;10210;52.284;9.892;2023-09-30T02:10:52;101390.00;;;19.40
20103;BMP180;10210;52.284;9.892;2023-09-30T02:13:19;101392.00;;;19.40
20103;BMP180;10210;52.284;9.892;2023-09-30T02:15:46;101387.00;;;19.40
20103;BMP180;10210;52.284;9.892;2023-09-30T02:18:11;101388.00;;;19.40
20103;BMP180;10210;52.284;9.892;2023-09-30T02:20:37;101393.00;;;19.30
20103;BMP180;10210;52.284;9.892;2023-09-30T02:23:10;101382.00;;;19.30
20103;BMP180;10210;52.284;9.892;2023-09-30T02:25:42;101386.00;;;19.30
20103;BMP180;10210;52.284;9.892;2023-09-30T02:28:09;101384.00;;;19.40
20103;BMP180;10210;52.284;9.892;2023-09-30T02:30:35;101385.00;;;19.40
20103;BMP180;10210;52.284;9.892;2023-09-30T02:33:02;101375.00;;;19.40
20103;BMP180;10210;52.284;9.892;2023-09-30T02:35:29;101380.00;;;19.40
20103;BMP180;10210;52.284;9.892;2023-09-30T02:37:54;101379.00;;;19.40
20103;BMP180;10210;52.284;9.892;2023-09-30T02:40:20;101381.00;;;19.30
20103;BMP180;10210;52.284;9.892;2023-09-30T02:42:46;101392.00;;;19.40
20103;BMP180;10210;52.284;9.892;2023-09-30T02:45:15;101402.00;;;19.40
20103;BMP180;10210;52.284;9.892;2023-09-30T02:47:43;101390.00;;;19.40
20103;BMP180;10210;52.284;9.892;2023-09-30T02:50:10;101406.00;;;19.30
20103;BMP180;10210;52.284;9.892;2023-09-30T02:52:39;101406.00;;;19.30
20103;BMP180;10210;52.284;9.892;2023-09-30T02:55:11;101403.00;;;19.30
20103;BMP180;10210;52.284;9.892;2023-09-30T02:57:38;101399.00;;;19.40
20103;BMP180;10210;52.284;9.892;2023-09-30T03:00:05;101399.00;;;19.30
20103;BMP180;10210;52.284;9.892;2023-09-30T03:02:53;101391.00;;;19.30
20103;BMP180;10210;52.284;9.892;2023-09-30T03:05:19;101417.00;;;19.30
20103;BMP180;10210;52.284;9.892;2023-09-30T03:07:47;101412.00;;;19.30
20103;BMP180;10210;52.284;9.892;2023-09-30T03:10:13;101408.00;;;19.30
20103;BMP180;10210;52.284;9.892;2023-09-30T03:12:48;101412.00;;;19.30
20103;BMP180;10210;52.284;9.892;2023-09-30T03:15:14;101396.00;;;19.30
20103;BMP180;10210;52.284;9.892;2023-09-30T03:17:40;101404.00;;;19.30
20103;BMP180;10210;52.284;9.892;2023-09-30T03:20:09;101409.00;;;19.30
20103;BMP180;10210;52.284;9.892;2023-09-30T03:22:44;101411.00;;;19.30
20103;BMP180;10210;52.284;9.892;2023-09-30T03:25:13;101405.00;;;19.30
20103;BMP180;10210;52.284;9.892;2023-09-30T03:27:42;101396.00;;;19.30
20103;BMP180;10210;52.284;9.892;2023-09-30T03:30:09;101395.00;;;19.30
20103;BMP180;10210;52.284;9.892;2023-09-30T03:32:38;101399.00;;;19.30
20103;BMP180;10210;52.284;9.892;2023-09-30T03:35:09;101411.00;;;19.20
20103;BMP180;10210;52.284;9.892;2023-09-30T03:37:44;101407.00;;;19.20
20103;BMP180;10210;52.284;9.892;2023-09-30T03:40:17;101411.00;;;19.20
20103;BMP180;10210;52.284;9.892;2023-09-30T03:42:52;101395.00;;;19.20
20103;BMP180;10210;52.284;9.892;2023-09-30T03:45:18;101398.00;;;19.20
20103;BMP180;10210;52.284;9.892;2023-09-30T03:47:44;101400.00;;;19.20
20103;BMP180;10210;52.284;9.892;2023-09-30T03:50:11;101389.00;;;19.20
20103;BMP180;10210;52.284;9.892;2023-09-30T03:52:43;101409.00;;;19.20
20103;BMP180;10210;52.284;9.892;2023-09-30T03:55:13;101398.00;;;19.20
20103;BMP180;10210;52.284;9.892;2023-09-30T03:57:42;101390.00;;;19.10
20103;BMP180;10210;52.284;9.892;2023-09-30T04:00:08;101388.00;;;19.10
20103;BMP180;10210;52.284;9.892;2023-09-30T04:02:42;101385.00;;;19.10
20103;BMP180;10210;52.284;9.892;2023-09-30T04:05:09;101397.00;;;19.10
20103;BMP180;10210;52.284;9.892;2023-09-30T04:07:39;101393.00;;;19.00
20103;BMP180;10210;52.284;9.892;2023-09-30T04:10:06;101396.00;;;19.00
20103;BMP180;10210;52.284;9.892;2023-09-30T04:12:31;101409.00;;;19.00
20103;BMP180;10210;52.284;9.892;2023-09-30T04:14:58;101405.00;;;19.00
20103;BMP180;10210;52.284;9.892;2023-09-30T04:17:24;101405.00;;;18.90
20103;BMP180;10210;52.284;9.892;2023-09-30T04:19:49;101395.00;;;18.90
20103;BMP180;10210;52.284;9.892;2023-09-30T04:22:19;101399.00;;;18.90
20103;BMP180;10210;52.284;9.892;2023-09-30T04:24:45;101398.00;;;18.90
20103;BMP180;10210;52.284;9.892;2023-09-30T04:27:11;101393.00;;;18.80
20103;BMP180;10210;52.284;9.892;2023-09-30T04:29:37;101398.00;;;18.80
20103;BMP180;10210;52.284;9.892;2023-09-30T04:32:03;101398.00;;;18.80
20103;BMP180;10210;52.284;9.892;2023-09-30T04:34:30;101406.00;;;18.80
20103;BMP180;10210;52.284;9.892;2023-09-30T04:36:56;101401.00;;;18.80
20103;BMP180;10210;52.284;9.892;2023-09-30T04:39:21;101402.00;;;18.80
20103;BMP180;10210;52.284;9.892;2023-09-30T04:41:48;101400.00;;;18.80
20103;BMP180;10210;52.284;9.892;2023-09-30T04:44:14;101406.00;;;18.80
20103;BMP180;10210;52.284;9.892;2023-09-30T04:46:39;101417.00;;;18.80
20103;BMP180;10210;52.284;9.892;2023-09-30T04:49:09;101418.00;;;18.70
20103;BMP180;10210;52.284;9.892;2023-09-30T04:51:35;101420.00;;;18.70
20103;BMP180;10210;52.284;9.892;2023-09-30T04:54:01;101415.00;;;18.70
20103;BMP180;10210;52.284;9.892;2023-09-30T04:56:27;101410.00;;;18.70
20103;BMP180;10210;52.284;9.892;2023-09-30T04:58:53;101417.00;;;18.70
20103;BMP180;10210;52.284;9.892;2023-09-30T05:01:19;101409.00;;;18.70
20103;BMP180;10210;52.284;9.892;2023-09-30T05:03:47;101411.00;;;18.70
20103;BMP180;10210;52.284;9.892;2023-09-30T05:06:16;101397.00;;;18.70
20103;BMP180;10210;52.284;9.892;2023-09-30T05:08:42;101403.00;;;18.70
20103;BMP180;10210;52.284;9.892;2023-09-30T05:11:08;101406.00;;;18.70
20103;BMP180;10210;52.284;9.892;2023-09-30T05:13:34;101420.00;;;18.70
20103;BMP180;10210;52.284;9.892;2023-09-30T05:15:59;101409.00;;;18.70
20103;BMP180;10210;52.284;9.892;2023-09-30T05:18:25;101417.00;;;18.70
20103;BMP180;10210;52.284;9.892;2023-09-30T05:20:51;101412.00;;;18.70
20103;BMP180;10210;52.284;9.892;2023-09-30T05:23:17;101427.00;;;18.70
20103;BMP180;10210;52.284;9.892;2023-09-30T05:25:43;101428.00;;;18.70
20103;BMP180;10210;52.284;9.892;2023-09-30T05:28:09;101431.00;;;18.70
20103;BMP180;10210;52.284;9.892;2023-09-30T05:30:35;101423.00;;;18.60
20103;BMP180;10210;52.284;9.892;2023-09-30T05:33:01;101422.00;;;18.60
20103;BMP180;10210;52.284;9.892;2023-09-30T05:35:27;101428.00;;;18.50
20103;BMP180;10210;52.284;9.892;2023-09-30T05:37:54;101437.00;;;18.50
20103;BMP180;10210;52.284;9.892;2023-09-30T05:40:20;101427.00;;;18.50
20103;BMP180;10210;52.284;9.892;2023-09-30T05:42:54;101426.00;;;18.40
20103;BMP180;10210;52.284;9.892;2023-09-30T05:45:22;101426.00;;;18.40
20103;BMP180;10210;52.284;9.892;2023-09-30T05:47:49;101436.00;;;18.40
20103;BMP180;10210;52.284;9.892;2023-09-30T05:50:18;101434.00;;;18.40
20103;BMP180;10210;52.284;9.892;2023-09-30T05:52:50;101431.00;;;18.40
20103;BMP180;10210;52.284;9.892;2023-09-30T05:55:17;101438.00;;;18.40
20103;BMP180;10210;52.284;9.892;2023-09-30T05:57:47;101439.00;;;18.40
20103;BMP180;10210;52.284;9.892;2023-09-30T06:00:13;101435.00;;;18.40
20103;BMP180;10210;52.284;9.892;2023-09-30T06:03:09;101452.00;;;18.50
20103;BMP180;10210;52.284;9.892;2023-09-30T06:05:42;101454.00;;;18.50
20103;BMP180;10210;52.284;9.892;2023-09-30T06:08:10;101455.00;;;18.50
20103;BMP180;10210;52.284;9.892;2023-09-30T06:10:42;101461.00;;;18.50
20103;BMP180;10210;52.284;9.892;2023-09-30T06:13:09;101463.00;;;18.60
20103;BMP180;10210;52.284;9.892;2023-09-30T06:15:43;101481.00;;;18.60
20103;BMP180;10210;52.284;9.892;2023-09-30T06:18:09;101479.00;;;18.60
20103;BMP180;10210;52.284;9.892;2023-09-30T06:20:38;101488.00;;;18.60
20103;BMP180;10210;52.284;9.892;2023-09-30T06:23:03;101489.00;;;18.60
20103;BMP180;10210;52.284;9.892;2023-09-30T06:25:29;101500.00;;;18.60
20103;BMP180;10210;52.284;9.892;2023-09-30T06:27:56;101487.00;;;18.60
20103;BMP180;10210;52.284;9.892;2023-09-30T06:30:23;101485.00;;;18.60
20103;BMP180;10210;52.284;9.892;2023-09-30T06:32:58;101480.00;;;18.60
20103;BMP180;10210;52.284;9.892;2023-09-30T06:35:30;101481.00;;;18.70
20103;BMP180;10210;52.284;9.892;2023-09-30T06:52:44;101500.00;;;18.60
20103;BMP180;10210;52.284;9.892;2023-09-30T06:55:15;101493.00;;;18.60
20103;BMP180;10210;52.284;9.892;2023-09-30T06:57:43;101498.00;;;18.60
20103;BMP180;10210;52.284;9.892;2023-09-30T07:00:11;101492.00;;;18.60
20103;BMP180;10210;52.284;9.892;2023-09-30T07:02:39;101505.00;;;18.60
20103;BMP180;10210;52.284;9.892;2023-09-30T07:05:10;101512.00;;;18.70
20103;BMP180;10210;52.284;9.892;2023-09-30T07:07:36;101504.00;;;18.70
20103;BMP180;10210;52.284;9.892;2023-09-30T07:10:03;101515.00;;;18.70
20103;BMP180;10210;52.284;9.892;2023-09-30T07:12:33;101526.00;;;18.70
20103;BMP180;10210;52.284;9.892;2023-09-30T07:15:02;101526.00;;;18.80
20103;BMP180;10210;52.284;9.892;2023-09-30T07:17:28;101527.00;;;18.80
20103;BMP180;10210;52.284;9.892;2023-09-30T07:19:54;101524.00;;;18.90
20103;BMP180;10210;52.284;9.892;2023-09-30T07:22:19;101525.00;;;19.00
20103;BMP180;10210;52.284;9.892;2023-09-30T07:24:45;101523.00;;;19.00
20103;BMP180;10210;52.284;9.892;2023-09-30T07:27:12;101528.00;;;19.00
20103;BMP180;10210;52.284;9.892;2023-09-30T07:29:38;101527.00;;;19.10
20103;BMP180;10210;52.284;9.892;2023-09-30T07:34:31;101536.00;;;19.20
20103;BMP180;10210;52.284;9.892;2023-09-30T07:36:57;101522.00;;;19.20
20103;BMP180;10210;52.284;9.892;2023-09-30T07:39:23;101539.00;;;19.30
20103;BMP180;10210;52.284;9.892;2023-09-30T07:41:48;101550.00;;;19.50
20103;BMP180;10210;52.284;9.892;2023-09-30T07:44:14;101545.00;;;19.80
20103;BMP180;10210;52.284;9.892;2023-09-30T07:46:40;101559.00;;;20.20
20103;BMP180;10210;52.284;9.892;2023-09-30T07:49:09;101562.00;;;20.60
20103;BMP180;10210;52.284;9.892;2023-09-30T07:51:35;101558.00;;;21.00
20103;BMP180;10210;52.284;9.892;2023-09-30T07:54:01;101560.00;;;21.50
20103;BMP180;10210;52.284;9.892;2023-09-30T07:56:28;101560.00;;;21.90
20103;BMP180;10210;52.284;9.892;2023-09-30T07:58:54;101555.00;;;22.40
20103;BMP180;10210;52.284;9.892;2023-09-30T08:01:20;101567.00;;;22.90
20103;BMP180;10210;52.284;9.892;2023-09-30T08:03:47;101568.00;;;23.30
20103;BMP180;10210;52.284;9.892;2023-09-30T08:06:12;101571.00;;;23.60
20103;BMP180;10210;52.284;9.892;2023-09-30T08:08:39;101569.00;;;24.00
20103;BMP180;10210;52.284;9.892;2023-09-30T08:11:06;101575.00;;;24.20
20103;BMP180;10210;52.284;9.892;2023-09-30T08:13:32;101581.00;;;24.50
20103;BMP180;10210;52.284;9.892;2023-09-30T08:16:01;101574.00;;;24.70
20103;BMP180;10210;52.284;9.892;2023-09-30T08:18:27;101578.00;;;24.90
20103;BMP180;10210;52.284;9.892;2023-09-30T08:20:53;101585.00;;;25.10
20103;BMP180;10210;52.284;9.892;2023-09-30T08:23:19;101575.00;;;25.20
20103;BMP180;10210;52.284;9.892;2023-09-30T08:25:44;101587.00;;;25.30
20103;BMP180;10210;52.284;9.892;2023-09-30T08:28:10;101589.00;;;25.50
20103;BMP180;10210;52.284;9.892;2023-09-30T08:30:36;101599.00;;;25.70
20103;BMP180;10210;52.284;9.892;2023-09-30T08:33:03;101590.00;;;25.80
20103;BMP180;10210;52.284;9.892;2023-09-30T08:35:36;101597.00;;;25.90
20103;BMP180;10210;52.284;9.892;2023-09-30T08:38:03;101590.00;;;26.00
20103;BMP180;10210;52.284;9.892;2023-09-30T08:40:29;101593.00;;;26.10
20103;BMP180;10210;52.284;9.892;2023-09-30T08:42:55;101593.00;;;26.20
20103;BMP180;10210;52.284;9.892;2023-09-30T08:45:21;101594.00;;;26.30
20103;BMP180;10210;52.284;9.892;2023-09-30T08:47:46;101599.00;;;26.30
20103;BMP180;10210;52.284;9.892;2023-09-30T08:50:14;101595.00;;;26.40
20103;BMP180;10210;52.284;9.892;2023-09-30T08:52:41;101597.00;;;26.40
20103;BMP180;10210;52.284;9.892;2023-09-30T08:55:10;101597.00;;;26.40
20103;BMP180;10210;52.284;9.892;2023-09-30T08:57:41;101596.00;;;26.50
20103;BMP180;10210;52.284;9.892;2023-09-30T09:00:13;101603.00;;;26.50
20103;BMP180;10210;52.284;9.892;2023-09-30T09:02:40;101607.00;;;26.50
20103;BMP180;10210;52.284;9.892;2023-09-30T09:05:07;101606.00;;;26.50
20103;BMP180;10210;52.284;9.892;2023-09-30T09:07:34;101614.00;;;26.50
20103;BMP180;10210;52.284;9.892;2023-09-30T09:10:11;101608.00;;;26.50
20103;BMP180;10210;52.284;9.892;2023-09-30T09:12:40;101615.00;;;26.50
20103;BMP180;10210;52.284;9.892;2023-09-30T09:15:08;101628.00;;;26.60
20103;BMP180;10210;52.284;9.892;2023-09-30T09:17:44;101622.00;;;26.60
20103;BMP180;10210;52.284;9.892;2023-09-30T09:20:16;101618.00;;;26.70
20103;BMP180;10210;52.284;9.892;2023-09-30T09:22:47;101617.00;;;26.70
20103;BMP180;10210;52.284;9.892;2023-09-30T09:25:13;101625.00;;;26.50
20103;BMP180;10210;52.284;9.892;2023-09-30T09:27:39;101623.00;;;26.30
20103;BMP180;10210;52.284;9.892;2023-09-30T09:30:38;101613.00;;;25.80
20103;BMP180;10210;52.284;9.892;2023-09-30T09:33:05;101612.00;;;25.70
20103;BMP180;10210;52.284;9.892;2023-09-30T09:35:33;101601.00;;;25.40
20103;BMP180;10210;52.284;9.892;2023-09-30T09:38:07;101601.00;;;25.20
20103;BMP180;10210;52.284;9.892;2023-09-30T09:40:37;101606.00;;;25.10
20103;BMP180;10210;52.284;9.892;2023-09-30T09:43:04;101599.00;;;25.00
20103;BMP180;10210;52.284;9.892;2023-09-30T09:45:34;101606.00;;;24.90
20103;BMP180;10210;52.284;9.892;2023-09-30T09:48:01;101605.00;;;24.90
20103;BMP180;10210;52.284;9.892;2023-09-30T09:50:27;101598.00;;;24.80
20103;BMP180;10210;52.284;9.892;2023-09-30T09:52:54;101600.00;;;24.70
20103;BMP180;10210;52.284;9.892;2023-09-30T09:55:23;101598.00;;;24.60
20103;BMP180;10210;52.284;9.892;2023-09-30T09:57:50;101598.00;;;24.50
20103;BMP180;10210;52.284;9.892;2023-09-30T10:00:22;101602.00;;;24.40
20103;BMP180;10210;52.284;9.892;2023-09-30T10:02:49;101603.00;;;24.30
20103;BMP180;10210;52.284;9.892;2023-09-30T10:05:17;101604.00;;;24.10
20103;BMP180;10210;52.284;9.892;2023-09-30T10:08:04;101606.00;;;23.90
20103;BMP180;10210;52.284;9.892;2023-09-30T10:10:36;101614.00;;;23.80
20103;BMP180;10210;52.284;9.892;2023-09-30T10:13:03;101612.00;;;23.60
20103;BMP180;10210;52.284;9.892;2023-09-30T10:18:02;101605.00;;;23.40
20103;BMP180;10210;52.284;9.892;2023-09-30T10:20:38;101604.00;;;23.20
20103;BMP180;10210;52.284;9.892;2023-09-30T10:25:50;101605.00;;;23.10
20103;BMP180;10210;52.284;9.892;2023-09-30T10:28:39;101605.00;;;23.00
20103;BMP180;10210;52.284;9.892;2023-09-30T10:31:18;101604.00;;;23.10
20103;BMP180;10210;52.284;9.892;2023-09-30T10:36:32;101618.00;;;23.10
20103;BMP180;10210;52.284;9.892;2023-09-30T10:38:59;101603.00;;;23.20
20103;BMP180;10210;52.284;9.892;2023-09-30T10:49:49;101608.00;;;23.50
20103;BMP180;10210;52.284;9.892;2023-09-30T10:52:26;101619.00;;;23.50
20103;BMP180;10210;52.284;9.892;2023-09-30T10:54:51;101629.00;;;23.60
20103;BMP180;10210;52.284;9.892;2023-09-30T10:57:27;101620.00;;;23.60
20103;BMP180;10210;52.284;9.892;2023-09-30T11:00:11;101604.00;;;23.70
20103;BMP180;10210;52.284;9.892;2023-09-30T11:02:49;101606.00;;;23.80
20103;BMP180;10210;52.284;9.892;2023-09-30T11:05:15;101609.00;;;23.90
20103;BMP180;10210;52.284;9.892;2023-09-30T11:07:45;101617.00;;;24.00
20103;BMP180;10210;52.284;9.892;2023-09-30T11:10:17;101607.00;;;24.10
20103;BMP180;10210;52.284;9.892;2023-09-30T11:12:58;101622.00;;;24.20
20103;BMP180;10210;52.284;9.892;2023-09-30T11:15:24;101614.00;;;24.30
20103;BMP180;10210;52.284;9.892;2023-09-30T11:17:52;101605.00;;;24.40
20103;BMP180;10210;52.284;9.892;2023-09-30T11:20:18;101608.00;;;24.40
20103;BMP180;10210;52.284;9.892;2023-09-30T11:22:46;101612.00;;;24.40
20103;BMP180;10210;52.284;9.892;2023-09-30T11:25:19;101605.00;;;24.40
20103;BMP180;10210;52.284;9.892;2023-09-30T11:27:45;101609.00;;;24.40
20103;BMP180;10210;52.284;9.892;2023-09-30T11:30:14;101608.00;;;24.40
20103;BMP180;10210;52.284;9.892;2023-09-30T11:32:40;101612.00;;;24.40
20103;BMP180;10210;52.284;9.892;2023-09-30T11:35:10;101607.00;;;24.40
20103;BMP180;10210;52.284;9.892;2023-09-30T11:37:46;101596.00;;;24.40
20103;BMP180;10210;52.284;9.892;2023-09-30T11:40:13;101602.00;;;24.30
20103;BMP180;10210;52.284;9.892;2023-09-30T11:42:39;101597.00;;;24.30
20103;BMP180;10210;52.284;9.892;2023-09-30T11:45:21;101593.00;;;24.20
20103;BMP180;10210;52.284;9.892;2023-09-30T11:47:50;101596.00;;;24.20
20103;BMP180;10210;52.284;9.892;2023-09-30T11:50:16;101596.00;;;24.20
20103;BMP180;10210;52.284;9.892;2023-09-30T11:52:44;101585.00;;;24.30
20103;BMP180;10210;52.284;9.892;2023-09-30T11:55:12;101589.00;;;24.30
20103;BMP180;10210;52.284;9.892;2023-09-30T11:57:38;101592.00;;;24.40
20103;BMP180;10210;52.284;9.892;2023-09-30T12:00:05;101596.00;;;24.40
20103;BMP180;10210;52.284;9.892;2023-09-30T12:02:39;101595.00;;;24.50
20103;BMP180;10210;52.284;9.892;2023-09-30T12:05:06;101599.00;;;24.50
20103;BMP180;10210;52.284;9.892;2023-09-30T12:07:38;101606.00;;;24.50
20103;BMP180;10210;52.284;9.892;2023-09-30T12:10:07;101612.00;;;24.50
20103;BMP180;10210;52.284;9.892;2023-09-30T12:12:34;101594.00;;;24.50
20103;BMP180;10210;52.284;9.892;2023-09-30T12:14:59;101598.00;;;24.60
20103;BMP180;10210;52.284;9.892;2023-09-30T12:17:25;101592.00;;;24.60
20103;BMP180;10210;52.284;9.892;2023-09-30T12:19:51;101588.00;;;24.60
20103;BMP180;10210;52.284;9.892;2023-09-30T12:22:16;101583.00;;;24.70
20103;BMP180;10210;52.284;9.892;2023-09-30T12:24:43;101584.00;;;24.70
20103;BMP180;10210;52.284;9.892;2023-09-30T12:27:09;101581.00;;;24.80
20103;BMP180;10210;52.284;9.892;2023-09-30T12:29:35;101581.00;;;24.80
20103;BMP180;10210;52.284;9.892;2023-09-30T12:32:04;101570.00;;;24.80
20103;BMP180;10210;52.284;9.892;2023-09-30T12:34:30;101566.00;;;24.90
20103;BMP180;10210;52.284;9.892;2023-09-30T12:36:58;101572.00;;;24.90
20103;BMP180;10210;52.284;9.892;2023-09-30T12:39:25;101566.00;;;25.00
20103;BMP180;10210;52.284;9.892;2023-09-30T12:41:51;101569.00;;;25.00
20103;BMP180;10210;52.284;9.892;2023-09-30T12:44:17;101561.00;;;25.00
20103;BMP180;10210;52.284;9.892;2023-09-30T12:46:44;101568.00;;;25.00
20103;BMP180;10210;52.284;9.892;2023-09-30T12:49:10;101562.00;;;25.10
20103;BMP180;10210;52.284;9.892;2023-09-30T12:51:36;101551.00;;;25.10
20103;BMP180;10210;52.284;9.892;2023-09-30T12:54:03;101557.00;;;25.10
20103;BMP180;10210;52.284;9.892;2023-09-30T12:56:29;101553.00;;;25.20
20103;BMP180;10210;52.284;9.892;2023-09-30T12:58:55;101559.00;;;25.30
20103;BMP180;10210;52.284;9.892;2023-09-30T13:01:21;101556.00;;;25.40
20103;BMP180;10210;52.284;9.892;2023-09-30T13:03:48;101556.00;;;25.40
20103;BMP180;10210;52.284;9.892;2023-09-30T13:06:15;101557.00;;;25.30
20103;BMP180;10210;52.284;9.892;2023-09-30T13:08:44;101550.00;;;25.30
20103;BMP180;10210;52.284;9.892;2023-09-30T13:11:10;101544.00;;;25.30
20103;BMP180;10210;52.284;9.892;2023-09-30T13:13:37;101561.00;;;25.20
20103;BMP180;10210;52.284;9.892;2023-09-30T13:16:04;101549.00;;;25.20
20103;BMP180;10210;52.284;9.892;2023-09-30T13:18:35;101552.00;;;25.20
20103;BMP180;10210;52.284;9.892;2023-09-30T13:21:02;101552.00;;;25.20
20103;BMP180;10210;52.284;9.892;2023-09-30T13:23:31;101544.00;;;25.20
20103;BMP180;10210;52.284;9.892;2023-09-30T13:25:57;101550.00;;;25.30
20103;BMP180;10210;52.284;9.892;2023-09-30T13:28:23;101545.00;;;25.30
20103;BMP180;10210;52.284;9.892;2023-09-30T13:30:48;101550.00;;;25.30
20103;BMP180;10210;52.284;9.892;2023-09-30T13:33:14;101546.00;;;25.30
20103;BMP180;10210;52.284;9.892;2023-09-30T13:35:40;101533.00;;;25.30
20103;BMP180;10210;52.284;9.892;2023-09-30T13:38:05;101539.00;;;25.30
20103;BMP180;10210;52.284;9.892;2023-09-30T13:40:31;101532.00;;;25.30
20103;BMP180;10210;52.284;9.892;2023-09-30T13:42:57;101535.00;;;25.30
20103;BMP180;10210;52.284;9.892;2023-09-30T13:45:24;101535.00;;;25.20
20103;BMP180;10210;52.284;9.892;2023-09-30T13:47:50;101540.00;;;25.20
20103;BMP180;10210;52.284;9.892;2023-09-30T13:50:16;101537.00;;;25.10
20103;BMP180;10210;52.284;9.892;2023-09-30T13:52:42;101537.00;;;25.00
20103;BMP180;10210;52.284;9.892;2023-09-30T13:55:08;101538.00;;;25.00
20103;BMP180;10210;52.284;9.892;2023-09-30T13:57:34;101535.00;;;25.00
20103;BMP180;10210;52.284;9.892;2023-09-30T14:00:03;101533.00;;;25.00
20103;BMP180;10210;52.284;9.892;2023-09-30T14:02:32;101532.00;;;25.00
20103;BMP180;10210;52.284;9.892;2023-09-30T14:04:58;101540.00;;;25.00
20103;BMP180;10210;52.284;9.892;2023-09-30T14:07:24;101530.00;;;25.00
20103;BMP180;10210;52.284;9.892;2023-09-30T14:09:49;101533.00;;;25.00
20103;BMP180;10210;52.284;9.892;2023-09-30T14:12:15;101526.00;;;25.10
20103;BMP180;10210;52.284;9.892;2023-09-30T14:14:41;101524.00;;;25.10
20103;BMP180;10210;52.284;9.892;2023-09-30T14:17:06;101524.00;;;25.20
20103;BMP180;10210;52.284;9.892;2023-09-30T14:19:40;101512.00;;;25.20
20103;BMP180;10210;52.284;9.892;2023-09-30T14:22:06;101515.00;;;25.30
20103;BMP180;10210;52.284;9.892;2023-09-30T14:24:35;101513.00;;;25.30
20103;BMP180;10210;52.284;9.892;2023-09-30T14:27:02;101512.00;;;25.30
20103;BMP180;10210;52.284;9.892;2023-09-30T14:29:30;101515.00;;;25.20
20103;BMP180;10210;52.284;9.892;2023-09-30T14:31:56;101505.00;;;25.20
20103;BMP180;10210;52.284;9.892;2023-09-30T14:34:23;101513.00;;;25.20